Time;durP1;ratioP1;P1;durP2;ratioP2;P2;SDS_P1;SDS_P2;PMS_P1;PMS_P2;Temp;Humidity;BMP_temperature;BMP_pressure;BME280_temperature;BME280_humidity;BME280_pressure;Samples;Min_cycle;Max_cycle;Signal;HPM_P1;HPM_P2
2023/01/21 00:01:10;;;;;;;23.30;17.33;;;1.50;78.20;;;;;;5053943;28;20194;-66
2023/01/21 00:03:38;;;;;;;27.00;16.80;;;1.40;77.90;;;;;;5053545;28;20222;-66
2023/01/21 00:06:07;;;;;;;24.98;15.02;;;1.40;78.10;;;;;;5053928;28;20692;-65
2023/01/21 00:08:34;;;;;;;24.42;17.40;;;1.40;78.40;;;;;;5056953;28;20209;-66
2023/01/21 00:11:06;;;;;;;23.02;16.80;;;1.40;78.40;;;;;;5073531;28;20346;-66
2023/01/21 00:13:34;;;;;;;24.35;17.10;;;1.40;78.40;;;;;;5073953;28;20248;-65
2023/01/21 00:16:02;;;;;;;25.48;16.52;;;1.40;78.80;;;;;;5073423;28;20405;-65
2023/01/21 00:18:29;;;;;;;24.92;17.50;;;1.40;78.90;;;;;;5073272;28;20548;-66
2023/01/21 00:20:57;;;;;;;23.20;16.60;;;1.40;78.60;;;;;;5073344;28;20247;-66
2023/01/21 00:23:25;;;;;;;27.58;16.95;;;1.40;78.70;;;;;;5073203;28;20221;-66
2023/01/21 00:26:00;;;;;;;29.20;18.45;;;1.50;78.80;;;;;;5072566;28;20218;-66
2023/01/21 00:28:29;;;;;;;27.10;19.02;;;1.40;78.60;;;;;;5072971;28;20196;-66
2023/01/21 00:31:00;;;;;;;26.88;17.73;;;1.40;78.50;;;;;;5073198;28;20190;-66
2023/01/21 00:33:30;;;;;;;31.90;20.58;;;1.40;78.40;;;;;;5073125;28;20247;-66
2023/01/21 00:36:00;;;;;;;27.15;19.00;;;1.40;78.20;;;;;;5072847;28;20197;-66
2023/01/21 00:38:29;;;;;;;23.75;18.30;;;1.40;78.10;;;;;;5073182;28;20197;-65
2023/01/21 00:41:01;;;;;;;24.17;18.30;;;1.40;78.20;;;;;;5072866;28;20620;-65
2023/01/21 00:43:28;;;;;;;27.88;18.23;;;1.40;78.40;;;;;;5073049;28;20285;-65
2023/01/21 00:45:56;;;;;;;27.80;18.95;;;1.40;78.40;;;;;;5068209;28;20217;-66
2023/01/21 00:48:23;;;;;;;26.42;17.52;;;1.40;78.40;;;;;;5064023;28;20555;-66
2023/01/21 00:50:53;;;;;;;26.58;17.73;;;1.40;78.30;;;;;;5072855;28;20189;-66
2023/01/21 00:53:20;;;;;;;29.55;19.40;;;1.30;78.10;;;;;;5072385;28;20283;-66
2023/01/21 00:55:49;;;;;;;31.15;20.33;;;1.30;78.00;;;;;;5072545;28;20190;-65
2023/01/21 00:58:17;;;;;;;29.48;17.90;;;1.30;78.30;;;;;;5072627;28;20194;-66
2023/01/21 01:00:47;;;;;;;26.00;16.75;;;1.30;78.30;;;;;;5072268;28;20248;-66
2023/01/21 01:03:14;;;;;;;28.45;18.73;;;1.30;78.30;;;;;;5072367;28;20193;-66
2023/01/21 01:05:42;;;;;;;27.98;18.10;;;1.30;78.30;;;;;;5052514;28;20222;-66
2023/01/21 01:08:09;;;;;;;26.17;18.55;;;1.30;78.60;;;;;;5052451;28;20244;-66
2023/01/21 01:10:38;;;;;;;23.67;17.65;;;1.30;78.40;;;;;;5052556;28;20191;-66
2023/01/21 01:13:06;;;;;;;27.50;17.70;;;1.30;78.40;;;;;;5052671;28;20664;-66
2023/01/21 01:15:34;;;;;;;28.85;18.42;;;1.30;78.30;;;;;;5052393;28;20230;-66
2023/01/21 01:18:02;;;;;;;29.15;19.40;;;1.30;78.30;;;;;;5052529;28;20229;-66
2023/01/21 01:20:32;;;;;;;30.23;19.13;;;1.20;78.00;;;;;;5052195;28;20611;-66
2023/01/21 01:23:00;;;;;;;26.23;17.83;;;1.20;77.90;;;;;;5052219;28;20201;-66
2023/01/21 01:25:27;;;;;;;26.73;18.45;;;1.20;78.00;;;;;;5052076;28;20670;-66
2023/01/21 01:27:55;;;;;;;24.98;17.80;;;1.20;77.90;;;;;;5052347;28;20660;-65
2023/01/21 01:30:23;;;;;;;24.33;17.15;;;1.30;77.90;;;;;;5052237;28;20202;-66
2023/01/21 01:32:51;;;;;;;32.90;18.50;;;1.20;77.50;;;;;;5052000;28;20240;-65
2023/01/21 01:35:18;;;;;;;26.33;16.88;;;1.20;77.50;;;;;;5052559;28;20199;-66
2023/01/21 01:37:46;;;;;;;28.90;19.08;;;1.20;77.70;;;;;;5051173;28;20190;-66
2023/01/21 01:40:14;;;;;;;34.58;18.45;;;1.20;77.90;;;;;;5052381;28;20190;-65
2023/01/21 01:42:43;;;;;;;27.35;18.08;;;1.20;77.80;;;;;;5061215;28;20559;-66
2023/01/21 01:45:20;;;;;;;30.95;19.15;;;1.20;77.90;;;;;;5072236;28;20659;-66
2023/01/21 01:47:57;;;;;;;27.65;18.13;;;1.20;77.90;;;;;;5071145;28;20190;-66
2023/01/21 01:50:27;;;;;;;28.13;18.05;;;1.20;78.00;;;;;;5071970;28;20272;-66
2023/01/21 01:53:00;;;;;;;29.63;19.05;;;1.20;77.80;;;;;;5069644;28;20270;-65
2023/01/21 01:55:29;;;;;;;25.75;17.10;;;1.20;77.70;;;;;;5060175;28;20714;-65
2023/01/21 01:57:57;;;;;;;25.70;17.95;;;1.20;78.10;;;;;;5055356;28;20194;-66
2023/01/21 02:00:27;;;;;;;27.58;18.02;;;1.10;77.90;;;;;;5052544;28;20209;-66
2023/01/21 02:05:42;;;;;;;28.20;18.10;;;1.00;78.40;;;;;;5068697;28;20731;-66
2023/01/21 02:08:11;;;;;;;25.15;17.38;;;1.00;78.50;;;;;;5058437;28;20671;-66
2023/01/21 02:10:39;;;;;;;28.92;17.95;;;1.00;78.70;;;;;;5060494;28;20190;-67
2023/01/21 02:13:07;;;;;;;31.45;18.45;;;1.10;78.90;;;;;;5062016;28;20189;-64
2023/01/21 02:15:41;;;;;;;27.77;18.05;;;1.00;78.40;;;;;;5052965;28;20664;-66
2023/01/21 02:18:20;;;;;;;29.85;18.50;;;1.00;78.50;;;;;;5063337;28;20372;-66
2023/01/21 02:21:34;;;;;;;26.00;17.92;;;0.90;78.80;;;;;;5051770;28;20197;-64
2023/01/21 02:24:41;;;;;;;25.15;16.75;;;0.90;78.90;;;;;;5051610;28;20644;-65
2023/01/21 02:27:31;;;;;;;31.38;18.73;;;0.90;78.80;;;;;;5002536;28;20218;-66
2023/01/21 02:30:41;;;;;;;28.48;18.48;;;0.80;79.10;;;;;;5051575;28;20221;-67
2023/01/21 02:33:44;;;;;;;29.60;19.38;;;0.80;79.60;;;;;;5051297;28;20186;-65
2023/01/21 02:36:26;;;;;;;31.10;19.60;;;0.80;80.00;;;;;;5068377;28;20265;-66
2023/01/21 02:39:03;;;;;;;29.13;18.17;;;0.90;80.40;;;;;;5071388;28;20190;-66
2023/01/21 02:41:42;;;;;;;27.88;18.08;;;0.90;80.30;;;;;;5071287;28;20193;-65
2023/01/21 02:44:16;;;;;;;30.73;18.95;;;0.90;80.10;;;;;;5071794;28;20194;-66
2023/01/21 02:46:50;;;;;;;30.33;19.30;;;1.00;80.00;;;;;;5071082;28;20247;-65
2023/01/21 02:49:25;;;;;;;32.38;18.88;;;1.00;80.10;;;;;;5073351;28;20637;-65
2023/01/21 02:51:52;;;;;;;29.45;18.30;;;1.00;80.10;;;;;;5075053;28;20189;-67
2023/01/21 02:55:01;;;;;;;25.88;18.48;;;1.00;80.10;;;;;;5075111;28;20197;-66
2023/01/21 02:57:39;;;;;;;27.25;18.75;;;1.00;79.90;;;;;;5039112;28;20193;-68
2023/01/21 03:00:13;;;;;;;29.30;18.45;;;1.00;79.70;;;;;;5075549;28;20276;-65
2023/01/21 03:03:00;;;;;;;28.73;17.15;;;1.00;79.80;;;;;;5074720;28;20277;-66
2023/01/21 03:05:44;;;;;;;28.33;16.88;;;1.00;79.50;;;;;;5074553;28;20198;-67
2023/01/21 03:08:21;;;;;;;31.13;16.42;;;1.10;79.60;;;;;;5074834;28;20648;-65
2023/01/21 03:10:55;;;;;;;26.60;18.83;;;1.10;79.40;;;;;;5074124;28;20193;-66
2023/01/21 03:19:23;;;;;;;29.92;18.17;;;1.10;79.20;;;;;;5038886;28;20293;-67
2023/01/21 03:21:53;;;;;;;25.65;15.85;;;1.10;79.30;;;;;;5054632;28;20194;-66
2023/01/21 03:24:22;;;;;;;22.92;14.27;;;1.10;79.10;;;;;;5054383;28;20194;-65
2023/01/21 03:26:54;;;;;;;27.20;16.58;;;1.10;79.20;;;;;;5054554;28;20308;-66
2023/01/21 03:29:28;;;;;;;26.48;14.93;;;1.10;79.30;;;;;;5058724;28;20185;-66
2023/01/21 03:32:02;;;;;;;24.48;16.52;;;1.00;79.00;;;;;;5074332;28;20185;-66
2023/01/21 03:34:32;;;;;;;25.80;14.70;;;0.90;79.20;;;;;;5074165;28;20197;-66
2023/01/21 03:37:07;;;;;;;20.48;14.20;;;0.90;79.50;;;;;;5074431;28;20200;-66
2023/01/21 03:39:45;;;;;;;20.23;13.30;;;0.90;79.70;;;;;;5074156;28;20195;-66
2023/01/21 03:42:16;;;;;;;21.52;13.18;;;1.00;79.60;;;;;;5074517;28;20504;-65
2023/01/21 03:44:45;;;;;;;19.92;13.30;;;1.00;80.00;;;;;;5074176;28;20247;-66
2023/01/21 03:47:21;;;;;;;19.88;13.98;;;0.90;79.80;;;;;;5073895;28;20236;-66
2023/01/21 03:49:52;;;;;;;18.75;12.57;;;0.80;80.30;;;;;;5074141;28;20189;-66
2023/01/21 03:52:24;;;;;;;21.67;13.73;;;0.90;80.20;;;;;;5073944;28;20200;-66
2023/01/21 03:54:52;;;;;;;25.83;14.65;;;0.90;80.10;;;;;;5073983;28;20285;-65
2023/01/21 03:57:20;;;;;;;25.27;15.20;;;0.90;80.20;;;;;;5073884;28;20636;-66
2023/01/21 03:59:47;;;;;;;21.20;13.05;;;0.90;80.10;;;;;;5073191;28;20186;-66
2023/01/21 04:02:18;;;;;;;18.58;12.73;;;0.90;80.10;;;;;;5073698;28;20590;-64
2023/01/21 04:04:46;;;;;;;18.90;12.95;;;0.90;79.70;;;;;;5073251;28;20190;-64
2023/01/21 04:07:13;;;;;;;26.23;12.65;;;0.90;79.70;;;;;;5068752;28;20211;-65
2023/01/21 04:09:43;;;;;;;23.08;13.43;;;0.90;79.70;;;;;;5056012;28;20498;-65
2023/01/21 04:12:10;;;;;;;21.17;12.35;;;0.90;79.80;;;;;;5070348;28;20264;-66
2023/01/21 04:14:38;;;;;;;21.70;13.43;;;0.90;79.60;;;;;;5054569;28;20194;-67
2023/01/21 04:17:05;;;;;;;20.02;10.80;;;0.90;79.80;;;;;;5064820;28;20179;-66
2023/01/21 04:19:33;;;;;;;21.52;13.43;;;0.90;79.90;;;;;;5053540;28;20583;-65
2023/01/21 04:22:00;;;;;;;23.92;13.93;;;0.90;79.80;;;;;;5053621;28;20548;-66
2023/01/21 04:24:30;;;;;;;19.52;13.57;;;0.90;79.50;;;;;;5053405;28;20223;-66
2023/01/21 04:26:59;;;;;;;22.38;14.85;;;0.90;79.40;;;;;;5053524;28;20218;-66
2023/01/21 04:29:26;;;;;;;17.95;11.73;;;0.90;79.40;;;;;;5053260;28;20524;-66
2023/01/21 04:31:54;;;;;;;17.75;12.32;;;0.90;79.80;;;;;;5053414;28;20196;-66
2023/01/21 04:34:21;;;;;;;20.05;12.38;;;0.80;79.80;;;;;;5067548;28;20186;-65
2023/01/21 04:36:48;;;;;;;20.00;13.13;;;0.80;79.60;;;;;;5073169;28;20660;-66
2023/01/21 04:39:16;;;;;;;23.50;13.65;;;0.90;79.70;;;;;;5073178;28;20640;-64
2023/01/21 04:41:44;;;;;;;21.13;13.02;;;0.90;79.60;;;;;;5073171;28;20194;-66
2023/01/21 04:44:18;;;;;;;21.77;12.25;;;0.80;79.70;;;;;;5073011;28;20190;-66
2023/01/21 04:46:48;;;;;;;22.48;13.75;;;0.80;80.00;;;;;;5072851;28;20617;-66
2023/01/21 04:49:15;;;;;;;20.77;13.40;;;0.80;80.00;;;;;;5072997;28;20194;-65
2023/01/21 04:51:43;;;;;;;18.52;12.10;;;0.80;79.90;;;;;;5073044;28;20193;-65
2023/01/21 04:54:11;;;;;;;20.58;13.07;;;0.80;80.00;;;;;;5073001;28;20190;-65
2023/01/21 04:56:38;;;;;;;19.63;12.55;;;0.80;79.90;;;;;;5072940;28;20649;-66
2023/01/21 04:59:06;;;;;;;19.80;13.60;;;0.70;79.60;;;;;;5072890;28;20197;-65
2023/01/21 05:01:35;;;;;;;20.45;13.48;;;0.70;79.80;;;;;;5072892;28;20652;-65
2023/01/21 05:04:02;;;;;;;24.08;14.77;;;0.70;80.40;;;;;;5072754;28;20280;-65
2023/01/21 05:06:32;;;;;;;24.85;14.07;;;0.70;80.30;;;;;;5072543;28;20278;-66
2023/01/21 05:09:00;;;;;;;22.95;14.38;;;0.70;80.10;;;;;;5072781;28;20201;-65
2023/01/21 05:11:27;;;;;;;23.45;13.27;;;0.70;80.20;;;;;;5072064;28;20235;-63
2023/01/21 05:13:54;;;;;;;19.48;13.55;;;0.70;80.20;;;;;;5068208;28;20186;-65
2023/01/21 05:16:22;;;;;;;23.35;14.57;;;0.70;80.00;;;;;;5064262;28;20198;-66
2023/01/21 05:18:51;;;;;;;21.33;13.07;;;0.70;81.00;;;;;;5065338;28;20512;-65
2023/01/21 05:21:21;;;;;;;18.55;12.95;;;0.70;80.00;;;;;;5067875;28;20189;-65
2023/01/21 05:23:49;;;;;;;19.98;13.70;;;0.70;80.40;;;;;;5070888;28;20186;-66
2023/01/21 05:26:16;;;;;;;24.38;13.40;;;0.70;80.50;;;;;;5068125;28;20242;-65
2023/01/21 05:28:43;;;;;;;20.45;12.85;;;0.70;80.40;;;;;;5071066;28;20231;-64
2023/01/21 05:31:10;;;;;;;23.38;13.55;;;0.70;80.50;;;;;;5058679;28;20190;-67
2023/01/21 05:33:38;;;;;;;17.38;12.60;;;0.60;80.40;;;;;;5052415;28;20182;-65
2023/01/21 05:36:09;;;;;;;23.35;14.73;;;0.60;80.30;;;;;;5064492;28;20193;-66
2023/01/21 05:38:36;;;;;;;19.27;13.60;;;0.60;80.20;;;;;;5053894;28;20244;-66
2023/01/21 05:41:04;;;;;;;22.17;14.13;;;0.60;80.00;;;;;;5071667;28;20186;-66
2023/01/21 05:43:31;;;;;;;20.60;13.05;;;0.70;80.30;;;;;;5063961;28;20604;-66
2023/01/21 05:45:58;;;;;;;26.17;14.77;;;0.70;80.10;;;;;;5051864;28;20762;-66
2023/01/21 05:48:27;;;;;;;19.23;11.77;;;0.70;80.10;;;;;;5066784;28;20257;-65
2023/01/21 05:50:55;;;;;;;22.63;13.35;;;0.70;80.00;;;;;;5067382;28;20316;-65
2023/01/21 05:53:24;;;;;;;21.20;13.02;;;0.60;79.60;;;;;;5052250;28;20191;-65
2023/01/21 05:55:54;;;;;;;20.15;12.27;;;0.60;79.60;;;;;;5052711;28;20182;-66
2023/01/21 05:58:23;;;;;;;16.40;11.55;;;0.60;79.60;;;;;;5052012;28;20197;-65
2023/01/21 06:00:50;;;;;;;21.55;13.18;;;0.60;79.70;;;;;;5067983;28;20178;-65
2023/01/21 06:03:20;;;;;;;22.98;12.77;;;0.60;79.60;;;;;;5063222;28;20179;-65
2023/01/21 06:05:49;;;;;;;20.45;12.02;;;0.60;79.50;;;;;;5054329;28;20186;-65
2023/01/21 06:08:17;;;;;;;22.40;12.60;;;0.60;79.60;;;;;;5072041;28;20232;-66
2023/01/21 06:10:49;;;;;;;22.75;12.95;;;0.60;79.70;;;;;;5061295;28;20194;-65
2023/01/21 06:13:17;;;;;;;17.30;13.00;;;0.60;79.80;;;;;;5062005;28;20216;-66
2023/01/21 06:15:44;;;;;;;17.55;12.82;;;0.60;79.90;;;;;;5069723;28;20682;-66
2023/01/21 06:18:11;;;;;;;23.30;12.68;;;0.50;79.70;;;;;;5056248;28;20636;-66
2023/01/21 06:20:38;;;;;;;19.90;12.98;;;0.50;79.60;;;;;;5067349;28;20190;-66
2023/01/21 06:23:06;;;;;;;20.67;13.50;;;0.50;79.60;;;;;;5070428;28;20190;-65
2023/01/21 06:25:34;;;;;;;17.77;11.75;;;0.60;79.90;;;;;;5074471;28;20652;-66
2023/01/21 06:28:02;;;;;;;21.58;12.35;;;0.60;79.80;;;;;;5056406;28;20328;-66
2023/01/21 06:30:29;;;;;;;21.83;12.73;;;0.50;79.60;;;;;;5064938;28;20194;-65
2023/01/21 06:32:57;;;;;;;21.38;12.57;;;0.50;79.60;;;;;;5070371;28;20181;-66
2023/01/21 06:35:24;;;;;;;18.08;11.90;;;0.50;79.60;;;;;;5072134;28;20276;-66
2023/01/21 06:37:51;;;;;;;19.42;11.85;;;0.50;79.70;;;;;;5072244;28;20186;-66
2023/01/21 06:40:18;;;;;;;17.50;11.82;;;0.50;79.70;;;;;;5072823;28;20842;-66
2023/01/21 06:42:46;;;;;;;18.50;12.43;;;0.50;80.00;;;;;;5071065;28;20181;-66
2023/01/21 06:45:16;;;;;;;24.13;13.55;;;0.50;79.60;;;;;;5070517;28;20213;-66
2023/01/21 06:47:43;;;;;;;20.73;12.55;;;0.50;79.20;;;;;;5072491;28;20229;-66
2023/01/21 06:50:12;;;;;;;20.83;12.43;;;0.50;79.00;;;;;;5070485;28;20189;-66
2023/01/21 06:52:41;;;;;;;19.40;12.43;;;0.50;79.10;;;;;;5072557;28;20247;-67
2023/01/21 06:55:09;;;;;;;19.23;12.65;;;0.50;78.80;;;;;;5065579;28;20209;-65
2023/01/21 06:57:38;;;;;;;24.05;13.32;;;0.40;78.80;;;;;;5072601;28;20688;-65
2023/01/21 07:00:08;;;;;;;21.50;13.65;;;0.40;78.70;;;;;;5068319;28;20188;-65
2023/01/21 07:02:36;;;;;;;21.50;11.77;;;0.30;78.50;;;;;;5072444;28;20196;-66
2023/01/21 07:05:04;;;;;;;18.80;12.25;;;0.30;78.90;;;;;;5072137;28;20216;-66
2023/01/21 07:07:31;;;;;;;22.98;13.55;;;0.30;79.30;;;;;;5072443;28;20226;-65
2023/01/21 07:09:59;;;;;;;24.55;14.38;;;0.30;79.30;;;;;;5070499;28;20190;-67
2023/01/21 07:12:26;;;;;;;26.10;15.23;;;0.30;79.40;;;;;;5072183;28;20193;-66
2023/01/21 07:14:53;;;;;;;22.13;12.40;;;0.40;79.60;;;;;;5068148;28;20221;-65
2023/01/21 07:17:20;;;;;;;25.52;13.38;;;0.40;79.50;;;;;;5057080;28;20282;-66
2023/01/21 07:19:49;;;;;;;20.63;12.95;;;0.40;79.00;;;;;;5067159;28;20197;-66
2023/01/21 07:22:16;;;;;;;23.38;12.55;;;0.50;78.90;;;;;;5071656;28;20190;-65
2023/01/21 07:24:48;;;;;;;21.90;12.98;;;0.50;79.30;;;;;;5062422;28;20194;-65
2023/01/21 07:27:16;;;;;;;21.23;11.13;;;0.50;79.40;;;;;;5054205;28;20313;-66
2023/01/21 07:29:43;;;;;;;19.60;11.82;;;0.50;79.20;;;;;;5060616;28;20190;-66
2023/01/21 07:32:10;;;;;;;23.27;13.05;;;0.50;79.10;;;;;;5059378;28;20580;-66
2023/01/21 07:34:37;;;;;;;23.15;14.48;;;0.60;79.20;;;;;;5054914;28;20182;-65
2023/01/21 07:37:07;;;;;;;24.90;13.77;;;0.60;79.20;;;;;;5057099;28;20611;-66
2023/01/21 07:39:34;;;;;;;19.58;12.05;;;0.70;79.10;;;;;;5053539;28;20276;-66
2023/01/21 07:42:01;;;;;;;19.63;12.93;;;0.70;79.00;;;;;;5064640;28;20205;-66
2023/01/21 07:44:28;;;;;;;22.65;12.70;;;0.70;78.50;;;;;;5058266;28;20198;-66
2023/01/21 07:46:56;;;;;;;22.00;13.90;;;0.70;78.30;;;;;;5058887;28;20226;-66
2023/01/21 07:49:24;;;;;;;24.25;13.20;;;0.70;78.30;;;;;;5056257;28;20178;-65
2023/01/21 07:51:56;;;;;;;22.10;13.20;;;0.70;78.60;;;;;;5056232;28;20187;-65
2023/01/21 07:54:25;;;;;;;22.38;12.50;;;0.80;78.80;;;;;;5070464;28;20251;-66
2023/01/21 07:56:52;;;;;;;21.27;13.10;;;0.90;79.20;;;;;;5055031;28;20202;-66
2023/01/21 07:59:18;;;;;;;22.70;13.25;;;1.00;79.40;;;;;;5052722;28;20285;-66
2023/01/21 08:01:45;;;;;;;22.13;13.07;;;1.00;78.60;;;;;;5053359;28;20286;-66
2023/01/21 08:04:12;;;;;;;22.40;12.90;;;1.00;78.30;;;;;;5066084;28;20280;-67
2023/01/21 08:06:40;;;;;;;21.45;13.30;;;1.00;78.10;;;;;;5055644;28;20720;-66
2023/01/21 08:09:07;;;;;;;19.58;12.98;;;1.10;77.90;;;;;;5064869;28;20213;-65
2023/01/21 08:11:35;;;;;;;23.65;14.15;;;1.10;77.30;;;;;;5059807;28;20202;-65
2023/01/21 08:14:02;;;;;;;19.50;12.90;;;1.20;76.30;;;;;;5065702;28;20517;-66
2023/01/21 08:16:29;;;;;;;20.60;13.88;;;1.20;76.30;;;;;;5057658;28;20276;-65
2023/01/21 08:18:56;;;;;;;22.23;14.77;;;1.20;75.80;;;;;;5067001;28;20682;-66
2023/01/21 08:21:25;;;;;;;23.60;13.18;;;1.10;75.40;;;;;;5060123;28;20278;-66
2023/01/21 08:23:52;;;;;;;20.77;12.00;;;1.10;75.90;;;;;;5069842;28;20269;-66
2023/01/21 08:26:19;;;;;;;18.88;12.15;;;1.10;75.80;;;;;;5055849;28;20705;-66
2023/01/21 08:28:47;;;;;;;22.85;12.90;;;1.10;75.90;;;;;;5067900;28;20311;-67
2023/01/21 08:31:14;;;;;;;22.75;14.05;;;1.10;75.60;;;;;;5064551;28;20217;-67
2023/01/21 08:33:42;;;;;;;20.65;12.20;;;1.10;75.60;;;;;;5069981;28;20232;-66
2023/01/21 08:36:09;;;;;;;20.77;12.57;;;1.10;75.40;;;;;;5068649;28;20198;-67
2023/01/21 08:38:36;;;;;;;28.52;14.95;;;1.10;75.70;;;;;;5070592;28;20681;-65
2023/01/21 08:41:04;;;;;;;22.88;12.35;;;1.10;75.40;;;;;;5067777;28;20236;-65
2023/01/21 08:43:32;;;;;;;20.55;11.70;;;1.10;75.40;;;;;;5066001;28;20216;-65
2023/01/21 08:46:01;;;;;;;20.73;13.18;;;1.10;75.50;;;;;;5060281;28;20206;-66
2023/01/21 08:48:28;;;;;;;19.80;12.32;;;1.10;75.80;;;;;;5055325;28;20556;-65
2023/01/21 08:50:58;;;;;;;22.80;13.30;;;1.10;75.90;;;;;;5052830;28;20222;-66
2023/01/21 08:53:25;;;;;;;21.15;13.65;;;1.10;75.40;;;;;;5051594;28;20190;-66
2023/01/21 08:55:52;;;;;;;26.25;14.13;;;1.20;75.50;;;;;;5064289;28;20286;-66
2023/01/21 08:58:19;;;;;;;24.45;14.35;;;1.20;75.10;;;;;;5069975;28;20208;-66
2023/01/21 09:00:47;;;;;;;19.83;15.05;;;1.20;74.70;;;;;;5067024;28;20273;-66
2023/01/21 09:03:18;;;;;;;19.05;12.82;;;1.20;74.60;;;;;;5052724;28;20230;-66
2023/01/21 09:05:45;;;;;;;28.83;14.27;;;1.20;74.70;;;;;;5066903;28;20190;-67
2023/01/21 09:08:12;;;;;;;21.05;13.95;;;1.20;74.50;;;;;;5051565;28;20214;-68
2023/01/21 09:13:23;;;;;;;19.23;12.68;;;1.20;74.60;;;;;;5051702;28;20666;-66
2023/01/21 09:15:50;;;;;;;17.55;10.90;;;1.20;74.40;;;;;;5051587;28;20197;-66
2023/01/21 09:18:19;;;;;;;21.13;12.35;;;1.20;74.30;;;;;;5051514;28;20279;-66
2023/01/21 09:20:46;;;;;;;19.75;12.93;;;1.20;74.10;;;;;;5051600;28;20277;-67
2023/01/21 09:25:56;;;;;;;19.92;12.07;;;1.30;73.70;;;;;;5049315;28;20226;-66
2023/01/21 09:28:23;;;;;;;24.60;14.75;;;1.30;74.00;;;;;;5051620;28;20299;-66
2023/01/21 09:30:56;;;;;;;25.52;13.20;;;1.30;74.00;;;;;;5052951;28;20194;-66
2023/01/21 09:33:24;;;;;;;22.70;13.20;;;1.30;73.50;;;;;;5067303;28;20644;-66
2023/01/21 09:35:55;;;;;;;18.48;12.07;;;1.30;73.30;;;;;;5064803;28;20185;-67
2023/01/21 09:38:22;;;;;;;22.27;13.60;;;1.40;73.40;;;;;;5051734;28;20282;-66
2023/01/21 09:40:49;;;;;;;22.50;13.85;;;1.40;73.70;;;;;;5052635;28;20273;-66
2023/01/21 09:43:23;;;;;;;19.35;12.15;;;1.40;73.60;;;;;;5052789;28;20191;-66
2023/01/21 09:45:52;;;;;;;20.40;12.25;;;1.40;73.70;;;;;;5059292;28;20311;-66
2023/01/21 09:48:30;;;;;;;22.52;13.40;;;1.50;74.00;;;;;;5050741;28;20230;-66
2023/01/21 09:50:59;;;;;;;21.27;12.77;;;1.60;73.60;;;;;;5067915;28;20216;-66
2023/01/21 09:53:32;;;;;;;23.02;13.20;;;1.60;73.30;;;;;;5065297;28;20537;-65
2023/01/21 09:56:06;;;;;;;21.90;13.13;;;1.60;73.50;;;;;;5068693;28;20358;-66
2023/01/21 09:58:38;;;;;;;22.48;13.73;;;1.70;73.80;;;;;;5063689;28;20202;-66
2023/01/21 10:01:12;;;;;;;19.73;11.73;;;1.80;73.40;;;;;;5064674;28;20274;-66
2023/01/21 10:03:53;;;;;;;18.83;12.48;;;1.80;73.70;;;;;;5063161;28;20185;-66
2023/01/21 10:06:28;;;;;;;20.02;12.90;;;1.90;73.30;;;;;;5065507;28;20193;-66
2023/01/21 10:09:38;;;;;;;21.25;12.48;;;2.00;73.00;;;;;;5049865;28;20229;-66
2023/01/21 10:12:26;;;;;;;22.40;11.85;;;2.00;72.70;;;;;;5052481;28;20556;-67
2023/01/21 10:15:07;;;;;;;19.85;11.43;;;2.10;72.80;;;;;;5060069;28;20202;-67
2023/01/21 10:17:50;;;;;;;25.63;13.05;;;2.20;73.30;;;;;;5052075;28;20688;-66
2023/01/21 10:20:23;;;;;;;23.20;12.85;;;2.30;73.30;;;;;;5067630;28;20190;-66
2023/01/21 10:22:57;;;;;;;21.90;13.30;;;2.40;72.50;;;;;;5061980;28;20237;-66
2023/01/21 10:25:35;;;;;;;22.45;12.60;;;2.40;71.70;;;;;;5054210;28;20194;-67
2023/01/21 10:28:06;;;;;;;22.35;12.50;;;2.40;72.10;;;;;;5053131;28;20305;-66
2023/01/21 10:30:37;;;;;;;22.52;13.20;;;2.40;71.90;;;;;;5055018;28;20187;-66
2023/01/21 10:33:10;;;;;;;21.83;13.55;;;2.50;71.50;;;;;;5068057;28;20287;-66
2023/01/21 10:35:50;;;;;;;22.63;11.45;;;2.50;71.00;;;;;;5054896;28;20566;-66
2023/01/21 10:38:27;;;;;;;19.23;11.10;;;2.60;71.20;;;;;;5051407;28;20273;-67
2023/01/21 10:41:02;;;;;;;22.45;11.88;;;2.70;70.80;;;;;;5065334;28;20660;-67
2023/01/21 10:43:36;;;;;;;17.80;11.50;;;2.70;69.70;;;;;;5053296;28;20308;-66
2023/01/21 10:46:15;;;;;;;19.13;11.23;;;2.70;70.00;;;;;;5055085;28;20749;-66
2023/01/21 10:48:49;;;;;;;19.30;12.38;;;2.80;70.90;;;;;;5056181;28;20274;-66
2023/01/21 10:51:21;;;;;;;26.00;12.80;;;2.90;70.90;;;;;;5068451;28;20189;-66
2023/01/21 10:53:55;;;;;;;20.42;11.77;;;2.90;70.90;;;;;;5054296;28;20210;-66
2023/01/21 10:56:32;;;;;;;21.92;12.30;;;3.00;70.30;;;;;;5059362;28;20249;-66
2023/01/21 10:59:05;;;;;;;18.65;10.60;;;3.10;69.70;;;;;;5057786;28;20189;-67
2023/01/21 11:01:37;;;;;;;18.48;11.18;;;3.20;68.00;;;;;;5057161;28;20712;-66
2023/01/21 11:04:10;;;;;;;18.60;11.57;;;3.20;67.70;;;;;;5050900;28;20561;-67
2023/01/21 11:06:40;;;;;;;16.73;11.57;;;3.30;69.20;;;;;;5059963;28;20190;-67
2023/01/21 11:09:10;;;;;;;15.95;10.30;;;3.30;68.70;;;;;;5068659;28;20316;-66
2023/01/21 11:11:39;;;;;;;24.90;11.75;;;3.30;67.40;;;;;;5070447;28;20941;-67
2023/01/21 11:14:06;;;;;;;18.42;10.82;;;3.30;67.80;;;;;;5071804;28;20190;-66
2023/01/21 11:16:42;;;;;;;18.98;12.15;;;3.40;66.80;;;;;;5072000;28;20202;-66
2023/01/21 11:19:14;;;;;;;17.65;9.93;;;3.40;66.80;;;;;;5071600;28;20193;-66
2023/01/21 11:21:58;;;;;;;18.98;10.95;;;3.40;66.70;;;;;;5073997;28;20198;-66
2023/01/21 11:24:27;;;;;;;17.40;11.20;;;3.40;66.30;;;;;;5059255;28;20194;-68
2023/01/21 11:26:55;;;;;;;17.45;11.18;;;3.30;66.10;;;;;;5071376;28;20190;-67
2023/01/21 11:29:24;;;;;;;20.70;12.43;;;3.30;67.00;;;;;;5053262;28;20871;-67
2023/01/21 11:32:01;;;;;;;18.58;11.85;;;3.30;68.40;;;;;;5059780;28;20201;-67
2023/01/21 11:34:29;;;;;;;16.92;11.02;;;3.30;67.50;;;;;;5067914;28;20201;-66
2023/01/21 11:36:59;;;;;;;18.30;12.15;;;3.40;67.40;;;;;;5070539;28;20208;-70
2023/01/21 11:39:28;;;;;;;19.48;11.38;;;3.50;67.40;;;;;;5057391;28;20277;-69
2023/01/21 11:41:57;;;;;;;18.40;12.65;;;3.50;67.40;;;;;;5068691;28;20229;-69
2023/01/21 11:44:26;;;;;;;21.10;11.40;;;3.50;66.60;;;;;;5055148;28;20618;-69
2023/01/21 11:46:53;;;;;;;18.67;11.85;;;3.50;66.90;;;;;;5050013;28;20192;-69
2023/01/21 11:49:28;;;;;;;18.42;11.98;;;3.50;66.60;;;;;;5050965;28;20308;-69
2023/01/21 11:52:18;;;;;;;16.77;11.55;;;3.50;66.60;;;;;;5045043;28;20641;-70
2023/01/21 11:54:45;;;;;;;18.30;10.57;;;3.40;66.30;;;;;;5038631;28;20281;-69
2023/01/21 11:57:33;;;;;;;17.30;12.45;;;3.40;66.70;;;;;;5041678;28;20657;-70
2023/01/21 12:00:08;;;;;;;24.75;13.35;;;3.40;66.40;;;;;;5029590;28;20262;-68
2023/01/21 12:02:39;;;;;;;18.90;12.63;;;3.40;67.20;;;;;;5034435;28;20680;-68
2023/01/21 12:05:16;;;;;;;19.10;11.50;;;3.50;67.60;;;;;;5041428;28;20183;-69
2023/01/21 12:07:51;;;;;;;18.98;11.05;;;3.40;67.40;;;;;;5041486;28;20293;-69
2023/01/21 12:10:30;;;;;;;24.48;15.25;;;3.50;67.90;;;;;;5035241;28;20222;-69
2023/01/21 12:13:16;;;;;;;21.33;12.32;;;3.50;68.60;;;;;;5033888;28;20183;-68
2023/01/21 12:15:57;;;;;;;17.00;11.60;;;3.50;67.10;;;;;;5043191;28;20281;-68
2023/01/21 12:18:40;;;;;;;20.90;12.95;;;3.50;66.50;;;;;;5050463;28;20205;-68
2023/01/21 12:21:15;;;;;;;25.15;13.55;;;3.50;66.70;;;;;;5045509;28;20282;-68
2023/01/21 12:24:01;;;;;;;17.40;10.77;;;3.50;66.60;;;;;;5046245;28;20225;-69
2023/01/21 12:26:40;;;;;;;19.00;11.43;;;3.40;66.50;;;;;;5042911;28;20277;-68
2023/01/21 12:29:41;;;;;;;17.60;11.50;;;3.30;67.10;;;;;;5043575;28;20218;-68
2023/01/21 12:32:15;;;;;;;20.15;11.27;;;3.30;67.00;;;;;;5022439;28;20231;-69
2023/01/21 12:34:46;;;;;;;18.17;10.70;;;3.30;66.70;;;;;;5040346;28;20286;-70
2023/01/21 12:37:19;;;;;;;19.00;11.05;;;3.30;67.00;;;;;;5039506;28;20190;-70
2023/01/21 12:39:51;;;;;;;17.25;10.65;;;3.30;66.80;;;;;;5035919;28;20657;-71
2023/01/21 12:42:24;;;;;;;18.08;10.73;;;3.20;67.20;;;;;;5032286;28;20282;-70
2023/01/21 12:44:54;;;;;;;18.73;11.10;;;3.20;67.30;;;;;;5033695;28;20234;-69
2023/01/21 12:47:28;;;;;;;18.45;11.80;;;3.10;66.90;;;;;;5062006;28;20717;-68
2023/01/21 12:50:02;;;;;;;18.48;11.00;;;3.10;67.40;;;;;;5063587;28;20308;-68
2023/01/21 12:52:37;;;;;;;18.95;11.38;;;3.10;66.90;;;;;;5058077;28;20284;-70
2023/01/21 12:55:13;;;;;;;21.15;10.57;;;3.10;67.40;;;;;;5059166;28;20615;-70
2023/01/21 12:57:46;;;;;;;19.20;11.20;;;3.10;67.90;;;;;;5070217;28;20276;-69
2023/01/21 13:00:18;;;;;;;16.88;10.27;;;3.10;68.20;;;;;;5055379;28;20182;-69
2023/01/21 13:02:52;;;;;;;21.77;11.13;;;3.20;67.60;;;;;;5054201;28;20198;-69
2023/01/21 13:05:28;;;;;;;17.98;11.32;;;3.20;67.70;;;;;;5052668;28;20191;-70
2023/01/21 13:08:00;;;;;;;17.73;9.88;;;3.20;68.10;;;;;;5055240;28;20285;-69
2023/01/21 13:10:33;;;;;;;21.08;10.80;;;3.20;67.70;;;;;;5048842;28;20218;-70